Cleveland, OH

5:23 PM EDT on September 01, 2015 (GMT -0400)
OHDOT | | Change Station
CLOSE
Current Station
Personal Weather Station
Location: Cleveland, OH
Elevation: 620 ft
Nearby Weather Stations

Elev 620 ft 41.55 °N, 81.58 °W | Updated 62 days ago

Clear
Clear
80 °F
Feels Like 83 °F
N
5
Wind Variable Wind from NNW
Gusts mph

Today
High -- | Low -- °F
--% Chance of Precip.
Yesterday
High -- | Low -- °F
Precip. -- in
6:52 AM 7:59 PM
Waning Gibbous, 86% visible
Pressure 30.09 in
Visibility 6.0 miles
Clouds Few 4000 ft
Heat Index 83 °F
Dew Point 68 °F
Humidity 66%
Rainfall in
Snow Depth Not available.
UV 4 out of 12
Pollen 10.80 out of 12
Air Quality Not available.
Flu Activity Not available.
METAR KCGF 012045Z 32006KT 6SM HZ FEW040 29/20 A3009
Pressure 30.09 in
Visibility 6.0 miles
Clouds Few 4000 ft
Heat Index 83 °F
Dew Point 68 °F
Humidity 66%
Rainfall in
Snow Depth Not available.
UV 4 out of 12
Pollen 10.80 out of 12
Air Quality Not available.
Flu Activity Not available.
METAR KCGF 012045Z 32006KT 6SM HZ FEW040 29/20 A3009

10-Day Weather Forecast

×

Almanac

Astronomy

Sep. 01, 2015 Rise Set
Actual Time
Civil Twilight
Nautical Twilight
Astronomical Twilight
Moon
Length of Visible Light
Length of Day
Tomorrow will be .
, % of the Moon is Illuminated

Today's Extremes

State Highs State Lows

Community

WunderPhotos

Upload Photos

1,851,626 photos uploaded!

WunderBlogs® & News

Nearby

Air Quality

  Air Quality AQ Index Pollutant
Not available.

Snow Depth

Station Depth Elevation

Earthquake Activity

City Distance Mag. Time & Date
Minimum magnitude displayed is 2.5.

Coastal Water Temperatures

Place Temperature

Stations

Nearby Weather Stations

Station Location Temp. Windchill Dew Point Humidity Wind Precip. Elev Updated Type